Time;durP1;ratioP1;P1;durP2;ratioP2;P2;SDS_P1;SDS_P2;PMS_P1;PMS_P2;Temp;Humidity;BMP_temperature;BMP_pressure;BME280_temperature;BME280_humidity;BME280_pressure;Samples;Min_cycle;Max_cycle;Signal;HPM_P1;HPM_P2
2021/06/15 00:00:47;;;;;;;14.07;6.97;;;;;;;22.41;60.00;100423.88;5067799;28;20998;-62
2021/06/15 00:03:14;;;;;;;17.38;7.00;;;;;;;22.53;59.84;100422.13;5068866;28;20079;-61
2021/06/15 00:05:41;;;;;;;11.18;6.47;;;;;;;22.54;59.85;100416.09;5072023;28;20090;-61
2021/06/15 00:08:08;;;;;;;16.08;6.90;;;;;;;22.58;59.48;100427.59;5067435;28;20072;-62
2021/06/15 00:10:36;;;;;;;16.20;6.60;;;;;;;22.50;59.94;100403.81;5061569;28;20443;-61
2021/06/15 00:13:03;;;;;;;11.65;6.18;;;;;;;22.63;59.74;100421.59;5072102;28;20055;-60
2021/06/15 00:15:30;;;;;;;15.70;6.85;;;;;;;22.58;59.85;100405.63;5067788;28;20090;-62
2021/06/15 00:17:57;;;;;;;14.23;6.75;;;;;;;22.51;59.60;100401.78;5069778;28;20131;-62
2021/06/15 00:20:25;;;;;;;15.18;7.00;;;;;;;22.54;59.85;100403.91;5065365;28;20123;-61
2021/06/15 00:22:53;;;;;;;20.05;7.35;;;;;;;22.58;59.92;100410.50;5070641;28;20119;-61
2021/06/15 00:25:20;;;;;;;13.73;5.97;;;;;;;22.47;59.72;100388.28;5068714;28;20048;-61
2021/06/15 00:27:48;;;;;;;10.10;5.75;;;;;;;22.57;59.82;100403.16;5060402;28;20041;-62
2021/06/15 00:30:17;;;;;;;10.35;5.68;;;;;;;22.56;60.03;100401.50;5069498;28;20064;-61
2021/06/15 00:32:47;;;;;;;12.65;5.72;;;;;;;22.48;59.89;100409.84;5063522;28;20045;-63
2021/06/15 00:35:14;;;;;;;14.25;6.53;;;;;;;22.42;59.96;100402.75;5065963;28;20040;-61
2021/06/15 00:37:41;;;;;;;12.95;6.03;;;;;;;22.40;60.31;100410.84;5070587;28;20044;-61
2021/06/15 00:40:09;;;;;;;10.73;5.82;;;;;;;22.37;60.30;100405.06;5070222;28;20135;-60
2021/06/15 00:42:36;;;;;;;12.60;7.10;;;;;;;22.34;60.28;100392.38;5071235;28;20132;-61
2021/06/15 00:45:08;;;;;;;17.05;6.00;;;;;;;22.33;60.06;100389.91;5062830;28;20147;-61
2021/06/15 00:47:36;;;;;;;15.95;6.53;;;;;;;22.16;60.27;100360.59;5065153;28;20045;-61
2021/06/15 00:50:04;;;;;;;16.73;5.80;;;;;;;22.28;60.27;100373.09;5067876;28;20136;-61
2021/06/15 00:52:33;;;;;;;18.75;6.57;;;;;;;22.25;60.36;100374.66;5054275;28;20132;-62
2021/06/15 00:55:00;;;;;;;15.02;7.10;;;;;;;22.18;60.44;100366.75;5062018;28;20483;-62
2021/06/15 00:57:28;;;;;;;15.02;6.15;;;;;;;22.19;60.58;100361.91;5067866;28;20465;-61
2021/06/15 00:59:55;;;;;;;11.68;5.80;;;;;;;22.14;60.55;100370.66;5065288;28;20071;-61
2021/06/15 01:02:24;;;;;;;17.58;6.53;;;;;;;22.13;60.81;100384.03;5067885;28;20128;-62
2021/06/15 01:04:51;;;;;;;14.75;7.15;;;;;;;22.13;60.65;100388.91;5060693;28;20084;-62
2021/06/15 01:07:17;;;;;;;22.90;7.43;;;;;;;22.12;60.71;100385.25;5062577;28;20128;-61
2021/06/15 01:10:00;;;;;;;18.50;6.28;;;;;;;22.07;60.72;100373.28;5068644;28;20070;-60
2021/06/15 01:12:40;;;;;;;21.42;7.05;;;;;;;22.05;60.92;100370.81;5062456;28;20275;-61
2021/06/15 01:15:19;;;;;;;19.48;7.22;;;;;;;21.96;60.94;100365.28;5064131;28;20037;-61
2021/06/15 01:17:56;;;;;;;17.77;7.70;;;;;;;21.95;60.89;100355.13;5070788;28;20067;-61
2021/06/15 01:20:30;;;;;;;19.98;9.10;;;;;;;21.95;60.89;100352.28;5053027;28;20114;-61
2021/06/15 01:23:16;;;;;;;19.13;10.35;;;;;;;21.93;61.15;100356.66;5061402;28;20124;-61
2021/06/15 01:26:18;;;;;;;18.83;9.63;;;;;;;21.83;60.84;100340.94;5063329;28;20163;-61
2021/06/15 01:28:54;;;;;;;15.35;8.27;;;;;;;21.83;60.93;100349.47;5063503;28;20119;-61
2021/06/15 01:31:37;;;;;;;24.92;9.77;;;;;;;21.79;60.98;100356.25;5064157;28;20119;-61
2021/06/15 01:34:10;;;;;;;17.48;6.95;;;;;;;21.74;61.13;100357.31;5058754;28;20059;-61
2021/06/15 01:36:42;;;;;;;18.30;8.38;;;;;;;21.67;61.28;100348.56;5058387;28;20128;-62
2021/06/15 01:39:15;;;;;;;18.20;8.55;;;;;;;21.71;61.30;100366.59;5060625;28;20119;-61
2021/06/15 01:41:51;;;;;;;18.98;8.90;;;;;;;21.70;61.48;100360.06;5066355;28;20049;-61
2021/06/15 01:44:21;;;;;;;20.40;8.77;;;;;;;21.67;61.50;100348.56;5065900;28;20127;-60
2021/06/15 01:47:01;;;;;;;18.08;7.47;;;;;;;21.44;61.85;100334.94;5056300;28;20049;-61
2021/06/15 01:49:39;;;;;;;18.85;7.72;;;;;;;21.47;62.28;100347.56;5055755;28;20045;-61
2021/06/15 01:52:11;;;;;;;17.80;7.85;;;;;;;21.49;62.15;100334.66;5068305;28;20072;-62
2021/06/15 01:54:41;;;;;;;20.77;8.27;;;;;;;21.56;61.84;100336.06;5056782;28;20135;-62
2021/06/15 01:57:10;;;;;;;18.77;8.30;;;;;;;21.44;62.03;100311.38;5058572;28;20071;-62
2021/06/15 01:59:40;;;;;;;20.67;8.15;;;;;;;21.55;62.01;100323.06;5057529;28;20077;-62
2021/06/15 02:02:07;;;;;;;;;;;;;;;21.46;61.97;100320.34;5064684;28;20047;-61
2021/06/15 02:04:39;;;;;;;12.95;6.32;;;;;;;21.44;62.38;100323.56;5070728;28;20044;-61
2021/06/15 02:07:12;;;;;;;13.70;6.28;;;;;;;21.30;62.68;100294.72;5066932;28;20143;-61
2021/06/15 02:09:41;;;;;;;13.27;6.85;;;;;;;21.47;62.79;100305.81;5069272;28;20407;-61
2021/06/15 02:12:08;;;;;;;19.20;8.57;;;;;;;21.28;62.56;100265.81;5068223;28;20455;-60
2021/06/15 02:14:37;;;;;;;13.55;7.03;;;;;;;21.52;62.31;100316.09;5061944;28;20468;-60
2021/06/15 02:17:07;;;;;;;17.75;8.80;;;;;;;21.49;62.21;100313.97;5072636;28;20084;-60
2021/06/15 02:19:36;;;;;;;20.63;8.82;;;;;;;21.54;62.38;100305.19;5074614;28;20036;-59
2021/06/15 02:22:13;;;;;;;18.00;8.30;;;;;;;21.59;62.06;100309.78;5071394;28;20075;-59
2021/06/15 02:24:52;;;;;;;23.65;9.38;;;;;;;21.53;62.02;100307.19;5072327;28;20053;-59
2021/06/15 02:27:21;;;;;;;24.73;9.63;;;;;;;21.55;62.19;100300.34;5069576;28;20076;-60
2021/06/15 02:29:50;;;;;;;21.33;9.73;;;;;;;21.55;62.25;100309.69;5073392;28;20046;-59
2021/06/15 02:32:22;;;;;;;18.70;8.75;;;;;;;21.51;62.16;100303.06;5070606;28;20116;-59
2021/06/15 02:34:50;;;;;;;17.63;9.13;;;;;;;21.52;62.29;100307.56;5072854;28;20044;-59
2021/06/15 02:37:25;;;;;;;21.90;8.50;;;;;;;21.49;62.32;100294.88;5073093;28;20127;-60
2021/06/15 02:39:56;;;;;;;17.27;8.50;;;;;;;21.43;62.30;100296.31;5071053;28;20127;-62
2021/06/15 02:42:24;;;;;;;18.33;8.93;;;;;;;21.46;62.19;100298.44;5071381;28;20044;-61
2021/06/15 02:44:56;;;;;;;25.52;9.63;;;;;;;21.47;62.34;100300.13;5061712;28;20123;-59
2021/06/15 02:47:24;;;;;;;26.98;9.95;;;;;;;21.46;62.39;100294.78;5064987;28;20556;-61
2021/06/15 02:49:56;;;;;;;24.58;9.63;;;;;;;21.40;62.15;100284.84;5064069;28;20164;-61
2021/06/15 02:52:30;;;;;;;19.60;8.40;;;;;;;21.45;62.41;100296.81;5069656;28;20139;-61
2021/06/15 02:55:04;;;;;;;23.42;10.40;;;;;;;21.42;62.39;100289.00;5069029;28;20051;-61
2021/06/15 02:57:32;;;;;;;20.77;10.85;;;;;;;21.28;62.61;100263.00;5056413;28;20464;-61
2021/06/15 02:59:58;;;;;;;21.35;10.52;;;;;;;21.35;62.56;100280.28;5066295;28;20084;-62
2021/06/15 03:02:26;;;;;;;19.55;9.57;;;;;;;21.39;62.59;100292.56;5067147;28;20076;-60
2021/06/15 03:04:53;;;;;;;23.13;9.73;;;;;;;21.38;62.43;100296.59;5070785;28;20048;-60
2021/06/15 03:07:20;;;;;;;20.75;10.10;;;;;;;21.37;62.64;100291.25;5072143;28;20076;-60
2021/06/15 03:09:47;;;;;;;24.80;11.10;;;;;;;21.16;62.73;100266.72;5064895;28;20123;-59
2021/06/15 03:12:25;;;;;;;17.77;9.98;;;;;;;21.33;62.61;100287.47;5066893;28;20124;-60
2021/06/15 03:15:01;;;;;;;21.33;9.18;;;;;;;21.36;62.74;100293.28;5066238;28;20072;-59
2021/06/15 03:17:33;;;;;;;27.42;11.30;;;;;;;21.35;62.66;100285.13;5067621;28;20523;-59
2021/06/15 03:20:07;;;;;;;27.05;9.90;;;;;;;21.11;62.75;100241.38;5071184;28;20118;-60
2021/06/15 03:22:50;;;;;;;23.60;9.90;;;;;;;21.33;62.57;100274.09;5071319;28;20072;-60
2021/06/15 03:25:20;;;;;;;19.25;9.73;;;;;;;21.26;62.80;100274.72;5073270;28;20076;-60
2021/06/15 03:28:20;;;;;;;23.20;10.00;;;;;;;21.24;62.75;100291.28;5060817;28;20158;-61
2021/06/15 03:30:47;;;;;;;;;;;;;;;21.19;62.61;100280.16;5059211;28;20556;-61
2021/06/15 03:33:16;;;;;;;21.23;9.30;;;;;;;21.26;62.64;100291.75;5071009;28;20007;-60
2021/06/15 03:35:49;;;;;;;19.80;8.90;;;;;;;21.22;62.66;100289.97;5057420;28;20063;-61
2021/06/15 03:38:18;;;;;;;25.67;9.05;;;;;;;21.19;62.99;100282.19;5071697;28;20136;-59
2021/06/15 03:40:48;;;;;;;17.33;8.93;;;;;;;21.17;63.00;100287.41;5062972;28;20068;-59
2021/06/15 03:43:17;;;;;;;25.95;10.07;;;;;;;21.16;63.28;100283.75;5072252;28;20083;-61
2021/06/15 03:45:50;;;;;;;22.13;9.70;;;;;;;21.16;63.26;100277.22;5071945;28;20136;-58
2021/06/15 03:48:20;;;;;;;19.45;9.80;;;;;;;21.05;63.38;100266.34;5067927;28;20417;-58
2021/06/15 03:50:50;;;;;;;26.85;9.15;;;;;;;21.15;63.40;100282.06;5071228;28;20488;-59
2021/06/15 03:53:18;;;;;;;22.42;8.98;;;;;;;21.08;63.52;100272.50;5055185;28;20120;-59
2021/06/15 03:55:49;;;;;;;18.92;10.10;;;;;;;21.10;63.55;100273.00;5083748;28;20124;-59
2021/06/15 03:58:16;;;;;;;18.17;8.32;;;;;;;21.20;63.58;100279.00;5065938;28;20076;-59
2021/06/15 04:00:48;;;;;;;18.23;8.70;;;;;;;21.13;63.64;100249.53;5064045;28;20147;-59
2021/06/15 04:03:15;;;;;;;20.25;8.50;;;;;;;21.33;63.76;100261.91;5067869;28;20044;-59
2021/06/15 04:05:44;;;;;;;21.27;8.48;;;;;;;21.32;63.62;100249.72;5071166;28;20044;-60
2021/06/15 04:08:15;;;;;;;17.40;7.85;;;;;;;21.41;63.57;100260.97;5070406;28;20124;-61
2021/06/15 04:10:46;;;;;;;23.92;8.20;;;;;;;21.48;63.60;100244.94;5070725;28;20037;-61
2021/06/15 04:13:14;;;;;;;20.80;7.97;;;;;;;21.63;63.13;100259.56;5066089;28;20495;-61
2021/06/15 04:15:43;;;;;;;14.32;7.95;;;;;;;21.66;63.07;100261.69;5057467;28;20053;-61
2021/06/15 04:18:13;;;;;;;16.48;7.78;;;;;;;21.67;63.00;100271.84;5069813;28;20041;-62
2021/06/15 04:20:42;;;;;;;17.63;8.73;;;;;;;21.69;62.82;100272.31;5059556;28;20053;-61
2021/06/15 04:23:10;;;;;;;20.25;8.23;;;;;;;21.41;62.93;100232.56;5070893;28;20116;-62
2021/06/15 04:25:40;;;;;;;19.30;8.68;;;;;;;21.59;62.99;100258.63;5062338;28;20455;-60
2021/06/15 04:28:10;;;;;;;22.05;9.20;;;;;;;21.57;63.12;100267.50;5071567;28;20186;-61
2021/06/15 04:30:37;;;;;;;;;;;;;;;21.48;62.85;100267.69;5071604;28;20649;-61
2021/06/15 04:33:08;;;;;;;15.40;7.72;;;;;;;21.47;63.09;100268.03;5071197;28;19963;-59
2021/06/15 04:35:43;;;;;;;22.00;9.18;;;;;;;21.48;63.10;100281.88;5069498;28;20084;-59
2021/06/15 04:38:17;;;;;;;20.30;9.30;;;;;;;21.34;63.28;100261.59;5066784;28;20049;-59
2021/06/15 04:40:49;;;;;;;22.30;9.10;;;;;;;21.38;63.26;100273.88;5063809;28;20119;-60
2021/06/15 04:43:30;;;;;;;21.88;10.77;;;;;;;21.36;63.35;100284.75;5064602;28;20115;-59
2021/06/15 04:46:07;;;;;;;16.73;8.70;;;;;;;21.30;63.42;100269.16;5069510;28;20135;-59
2021/06/15 04:48:38;;;;;;;20.42;8.68;;;;;;;21.20;63.80;100252.63;5068760;28;20051;-59
2021/06/15 04:51:06;;;;;;;19.67;9.13;;;;;;;21.24;63.74;100259.22;5070769;28;20079;-60
2021/06/15 04:53:37;;;;;;;16.88;8.32;;;;;;;21.33;63.61;100276.09;5058808;28;20733;-59
2021/06/15 04:56:06;;;;;;;16.45;7.20;;;;;;;21.30;63.67;100260.63;5064732;28;20055;-59
2021/06/15 04:58:34;;;;;;;21.50;6.75;;;;;;;21.32;63.64;100280.13;5056025;28;20519;-60
2021/06/15 05:01:01;;;;;;;19.77;7.53;;;;;;;21.39;63.67;100284.03;5066982;28;20096;-61
2021/06/15 05:03:33;;;;;;;18.17;8.20;;;;;;;21.39;63.41;100286.88;5064966;28;20044;-62
2021/06/15 05:06:04;;;;;;;19.95;8.82;;;;;;;21.34;63.30;100287.16;5064240;28;20087;-64
2021/06/15 05:08:44;;;;;;;21.00;9.82;;;;;;;21.30;63.51;100289.03;5065162;28;20040;-59
2021/06/15 05:11:12;;;;;;;;;;;;;;;21.22;63.22;100287.13;5068406;28;20083;-59
2021/06/15 05:13:44;;;;;;;16.58;7.93;;;;;;;21.24;63.43;100294.13;5068188;28;19920;-60
2021/06/15 05:16:12;;;;;;;17.10;8.85;;;;;;;21.24;63.50;100296.13;5062386;28;20467;-59
2021/06/15 05:18:40;;;;;;;18.15;9.55;;;;;;;21.15;63.62;100284.09;5066886;28;20044;-60
2021/06/15 05:21:12;;;;;;;21.15;9.90;;;;;;;21.22;63.42;100299.31;5064981;28;20128;-62
2021/06/15 05:24:25;;;;;;;22.92;9.70;;;;;;;21.09;63.71;100280.66;5065694;28;20139;-60
2021/06/15 05:26:52;;;;;;;18.33;8.85;;;;;;;21.22;63.72;100290.81;5060916;28;20556;-61
2021/06/15 05:29:19;;;;;;;13.05;8.38;;;;;;;21.26;63.68;100296.59;5070137;28;20124;-66
2021/06/15 05:31:45;;;;;;;16.83;8.60;;;;;;;21.27;63.79;100298.25;5067093;28;20082;-68
2021/06/15 05:34:12;;;;;;;19.95;9.45;;;;;;;21.32;63.48;100308.53;5063757;28;20121;-66
2021/06/15 05:36:39;;;;;;;20.23;8.38;;;;;;;21.26;63.82;100282.38;5067807;28;20124;-66
2021/06/15 05:39:06;;;;;;;20.02;8.75;;;;;;;21.38;63.67;100293.75;5067696;28;20904;-67
2021/06/15 05:41:33;;;;;;;16.80;8.10;;;;;;;21.41;63.44;100281.69;5061658;28;20127;-65
2021/06/15 05:44:00;;;;;;;17.50;8.45;;;;;;;21.67;63.40;100291.75;5069830;28;20135;-64
2021/06/15 05:46:27;;;;;;;19.15;8.18;;;;;;;21.69;63.09;100276.00;5060984;28;20476;-65
2021/06/15 05:48:57;;;;;;;19.33;8.18;;;;;;;21.90;63.19;100280.63;5066339;28;20037;-67
2021/06/15 05:51:24;;;;;;;16.38;8.07;;;;;;;22.09;62.90;100279.94;5069989;28;20411;-67
2021/06/15 05:53:51;;;;;;;24.08;9.82;;;;;;;22.30;62.59;100291.06;5073103;28;20119;-68
2021/06/15 05:56:18;;;;;;;22.77;8.57;;;;;;;22.42;62.22;100271.88;5058236;28;20136;-68
2021/06/15 05:58:44;;;;;;;18.23;7.90;;;;;;;22.48;62.06;100263.91;5082928;28;20043;-61
2021/06/15 06:01:11;;;;;;;20.70;8.50;;;;;;;22.87;61.87;100286.78;5062386;28;20139;-68
2021/06/15 06:03:43;;;;;;;16.83;8.23;;;;;;;23.11;61.55;100291.44;5071394;28;20065;-69
2021/06/15 06:08:56;;;;;;;19.67;8.73;;;;;;;23.57;60.81;100285.94;5066777;28;20083;-66
2021/06/15 06:11:23;;;;;;;19.42;8.85;;;;;;;23.79;59.71;100259.53;5068112;28;20128;-66
2021/06/15 06:13:53;;;;;;;17.45;8.48;;;;;;;24.24;58.91;100285.63;5063827;28;20074;-66
2021/06/15 06:16:21;;;;;;;23.92;9.27;;;;;;;24.30;58.35;100249.88;5072969;28;20624;-67
2021/06/15 06:19:08;;;;;;;21.02;11.07;;;;;;;24.49;58.54;100286.94;5072769;28;20423;-65
2021/06/15 06:21:35;;;;;;;17.20;9.50;;;;;;;24.56;58.21;100266.25;5072274;28;20143;-66
2021/06/15 06:24:05;;;;;;;15.35;9.63;;;;;;;24.77;58.32;100280.88;5069747;28;20040;-66
2021/06/15 06:26:32;;;;;;;;;;;;;;;24.87;58.57;100279.41;5068402;28;20707;-67
2021/06/15 06:28:59;;;;;;;21.40;10.50;;;;;;;25.04;57.41;100272.31;5071117;28;19927;-66
2021/06/15 06:31:26;;;;;;;24.92;10.98;;;;;;;25.35;56.83;100284.63;5068296;28;20139;-66
2021/06/15 06:33:53;;;;;;;19.08;10.70;;;;;;;25.56;56.43;100293.47;5061906;28;20053;-67
2021/06/15 06:36:20;;;;;;;23.02;10.32;;;;;;;25.84;55.78;100283.63;5061236;28;20037;-67
2021/06/15 06:38:52;;;;;;;20.00;10.13;;;;;;;26.13;55.82;100279.84;5064887;28;20450;-65
2021/06/15 06:41:20;;;;;;;17.70;9.75;;;;;;;26.53;54.46;100277.38;5067779;28;20044;-64
2021/06/15 06:43:47;;;;;;;22.35;10.85;;;;;;;26.94;53.86;100287.53;5068747;28;20072;-66
2021/06/15 06:46:14;;;;;;;21.35;10.27;;;;;;;27.33;52.76;100289.03;5068311;28;20583;-65
2021/06/15 06:48:42;;;;;;;20.08;10.00;;;;;;;27.72;52.04;100289.19;5064461;28;20055;-65
2021/06/15 06:51:09;;;;;;;19.55;10.18;;;;;;;28.00;51.12;100284.81;5067420;28;20041;-65
2021/06/15 06:53:36;;;;;;;16.73;9.77;;;;;;;28.25;50.54;100282.00;5072191;28;20049;-66
2021/06/15 06:56:07;;;;;;;25.15;9.55;;;;;;;28.57;49.85;100279.19;5069124;28;20553;-65
2021/06/15 06:58:37;;;;;;;19.42;9.25;;;;;;;28.85;48.94;100272.59;5062558;28;20087;-66
2021/06/15 07:01:04;;;;;;;17.02;9.23;;;;;;;29.00;48.63;100277.13;5070262;28;20068;-66
2021/06/15 07:03:31;;;;;;;19.15;8.90;;;;;;;29.18;48.32;100282.03;5063935;28;20067;-65
2021/06/15 07:05:58;;;;;;;16.10;9.70;;;;;;;29.41;47.55;100285.25;5072114;28;20139;-63
2021/06/15 07:08:25;;;;;;;19.80;9.40;;;;;;;29.60;47.27;100283.16;5074698;28;20144;-65
2021/06/15 07:10:52;;;;;;;22.33;9.23;;;;;;;29.57;47.42;100258.03;5074639;28;20485;-65
2021/06/15 07:13:19;;;;;;;22.70;10.60;;;;;;;29.70;46.91;100273.66;5055828;28;20088;-64
2021/06/15 07:15:46;;;;;;;20.35;11.05;;;;;;;29.88;46.42;100293.69;5054425;28;20556;-65
2021/06/15 07:18:13;;;;;;;21.45;9.52;;;;;;;30.17;46.41;100283.66;5054414;28;20095;-65
2021/06/15 07:20:40;;;;;;;17.90;9.13;;;;;;;30.45;45.40;100287.59;5064262;28;20471;-66
2021/06/15 07:23:08;;;;;;;21.05;9.45;;;;;;;30.70;45.10;100293.16;5073946;28;20040;-65
2021/06/15 07:25:35;;;;;;;19.38;7.60;;;;;;;30.82;44.41;100284.03;5074407;28;20072;-64
2021/06/15 07:28:03;;;;;;;20.63;9.32;;;;;;;31.01;44.15;100262.44;5074208;28;20484;-64
2021/06/15 07:30:29;;;;;;;20.70;8.63;;;;;;;31.31;43.75;100296.31;5057082;28;20128;-64
2021/06/15 07:32:57;;;;;;;23.73;9.68;;;;;;;31.13;43.65;100292.81;5054314;28;20409;-66
2021/06/15 07:35:26;;;;;;;31.45;12.10;;;;;;;30.89;43.70;100289.72;5054274;28;20076;-65
2021/06/15 07:37:55;;;;;;;25.30;12.88;;;;;;;30.58;44.60;100267.75;5053956;28;20049;-65
2021/06/15 07:40:23;;;;;;;21.58;12.35;;;;;;;30.73;44.46;100288.63;5073863;28;20058;-65
2021/06/15 07:42:55;;;;;;;26.55;12.27;;;;;;;31.08;44.00;100285.44;5074000;28;20467;-64
2021/06/15 07:45:24;;;;;;;26.77;11.73;;;;;;;31.45;42.67;100286.69;5057511;28;20051;-65
2021/06/15 07:47:54;;;;;;;20.65;11.32;;;;;;;31.41;42.41;100238.94;5054046;28;20064;-65
2021/06/15 07:50:22;;;;;;;19.15;10.20;;;;;;;31.96;42.24;100295.56;5053996;28;20128;-65
2021/06/15 07:52:49;;;;;;;17.80;10.30;;;;;;;32.16;41.69;100282.06;5053914;28;20072;-66
2021/06/15 07:55:17;;;;;;;14.50;8.65;;;;;;;32.39;41.66;100280.50;5059304;28;20076;-65
2021/06/15 07:57:47;;;;;;;14.95;8.85;;;;;;;32.61;41.08;100276.00;5064889;28;20044;-66
2021/06/15 08:00:17;;;;;;;17.70;8.27;;;;;;;32.74;40.95;100267.53;5071926;28;20557;-67
2021/06/15 08:02:44;;;;;;;26.35;10.52;;;;;;;32.99;40.64;100279.53;5062811;28;20048;-65
2021/06/15 08:05:13;;;;;;;19.83;10.65;;;;;;;33.16;40.30;100276.72;5071565;28;20135;-66
2021/06/15 08:07:40;;;;;;;17.80;10.40;;;;;;;33.29;40.02;100279.78;5064512;28;20080;-65
2021/06/15 08:10:08;;;;;;;23.88;9.10;;;;;;;33.35;39.72;100269.34;5061824;28;20560;-65
2021/06/15 08:12:35;;;;;;;4.45;2.75;;;;;;;33.02;36.33;100283.59;5072471;28;20072;-66
2021/06/15 08:15:04;;;;;;;5.82;2.50;;;;;;;32.08;35.40;100271.88;5069064;28;20079;-66
2021/06/15 08:17:31;;;;;;;7.63;3.70;;;;;;;31.60;35.78;100278.69;5053095;28;20144;-67
2021/06/15 08:19:58;;;;;;;7.95;3.80;;;;;;;31.95;37.02;100280.31;5069480;28;20087;-66
2021/06/15 08:22:25;;;;;;;7.68;3.65;;;;;;;32.19;36.49;100278.31;5073094;28;20086;-65
2021/06/15 08:24:51;;;;;;;5.85;2.72;;;;;;;32.48;35.98;100266.31;5057369;28;20084;-65
2021/06/15 08:27:18;;;;;;;5.85;2.97;;;;;;;32.72;35.94;100288.25;5052900;28;20139;-65
2021/06/15 08:29:45;;;;;;;8.50;3.28;;;;;;;32.72;35.25;100288.25;5053680;28;20207;-65
2021/06/15 08:32:12;;;;;;;6.57;2.97;;;;;;;32.99;34.74;100288.19;5053351;28;20106;-65
2021/06/15 08:34:39;;;;;;;7.65;3.17;;;;;;;33.24;34.48;100284.03;5052788;28;20480;-65
2021/06/15 08:37:06;;;;;;;13.27;4.35;;;;;;;33.53;35.44;100278.50;5053342;28;20128;-65
2021/06/15 08:39:33;;;;;;;10.13;3.83;;;;;;;33.82;34.41;100277.91;5052798;28;20079;-65
2021/06/15 08:42:00;;;;;;;11.40;5.35;;;;;;;33.58;34.41;100260.59;5052714;28;20379;-66
2021/06/15 08:44:27;;;;;;;8.50;4.47;;;;;;;33.90;34.78;100276.47;5052594;28;20069;-66
2021/06/15 08:46:54;;;;;;;12.88;4.78;;;;;;;34.14;34.89;100280.91;5062726;28;20088;-65
2021/06/15 08:49:21;;;;;;;12.82;4.93;;;;;;;34.34;33.97;100286.63;5069140;28;20702;-65
2021/06/15 08:51:47;;;;;;;3.78;2.50;;;;;;;33.69;31.95;100277.75;5072094;28;20072;-65
2021/06/15 08:54:18;;;;;;;8.05;2.78;;;;;;;33.21;32.20;100268.34;5074181;28;20135;-65
2021/06/15 08:56:45;;;;;;;7.95;3.30;;;;;;;33.30;32.30;100252.47;5083346;28;20134;-65
2021/06/15 08:59:21;;;;;;;4.65;2.50;;;;;;;33.35;31.66;100261.47;5073631;28;20040;-65
2021/06/15 09:01:53;;;;;;;7.93;3.67;;;;;;;33.42;31.79;100257.59;5052051;28;20095;-67
2021/06/15 09:04:20;;;;;;;5.25;2.20;;;;;;;33.12;31.33;100265.22;5052618;28;20602;-66
2021/06/15 09:06:48;;;;;;;5.00;3.03;;;;;;;32.65;31.33;100259.44;5051432;28;20144;-66
2021/06/15 09:09:16;;;;;;;5.23;3.23;;;;;;;32.75;32.14;100237.34;5051669;28;20456;-65
2021/06/15 09:11:59;;;;;;;6.13;3.10;;;;;;;32.78;31.08;100236.47;5051660;28;20052;-65
2021/06/15 09:14:51;;;;;;;6.50;2.45;;;;;;;32.71;31.44;100228.75;5051325;28;20091;-65
2021/06/15 09:17:27;;;;;;;5.38;2.65;;;;;;;32.87;31.15;100241.72;5051755;28;20140;-65
2021/06/15 09:20:20;;;;;;;8.32;2.55;;;;;;;33.44;31.40;100229.84;5052576;28;20044;-65
2021/06/15 09:23:03;;;;;;;8.57;2.72;;;;;;;34.08;30.95;100236.31;5067575;28;20128;-66
2021/06/15 09:25:32;;;;;;;5.05;2.20;;;;;;;34.43;30.22;100242.53;5066553;28;20057;-65
2021/06/15 09:28:14;;;;;;;4.45;2.47;;;;;;;34.19;30.18;100230.31;5074743;28;20105;-66
2021/06/15 09:31:02;;;;;;;6.85;3.03;;;;;;;34.47;30.32;100219.25;5091448;28;20079;-65
2021/06/15 09:33:43;;;;;;;6.32;2.60;;;;;;;35.00;30.49;100234.44;5066763;28;20132;-65
2021/06/15 09:36:13;;;;;;;8.73;3.05;;;;;;;35.29;29.99;100228.69;5051274;28;20461;-67
2021/06/15 09:38:55;;;;;;;4.32;2.17;;;;;;;35.45;29.31;100234.41;5069095;28;20079;-67
2021/06/15 09:41:42;;;;;;;7.47;2.00;;;;;;;34.99;28.93;100230.72;5073818;28;20762;-66
2021/06/15 09:44:22;;;;;;;6.40;2.50;;;;;;;35.05;29.43;100240.53;5067236;28;20068;-66
2021/06/15 09:46:52;;;;;;;10.13;3.92;;;;;;;35.37;30.66;100235.91;5051105;28;20094;-66
2021/06/15 09:49:45;;;;;;;8.07;3.85;;;;;;;35.24;31.48;100229.22;5061743;28;20473;-66
2021/06/15 09:52:17;;;;;;;9.95;4.55;;;;;;;35.46;31.91;100223.63;5050931;28;20091;-65
2021/06/15 09:54:57;;;;;;;8.52;3.33;;;;;;;35.41;32.24;100230.00;5058122;28;20503;-65
2021/06/15 09:57:29;;;;;;;7.90;3.70;;;;;;;35.44;32.07;100217.44;5068454;28;20072;-65
2021/06/15 10:00:08;;;;;;;6.97;3.30;;;;;;;35.12;32.81;100225.81;5058731;28;20119;-66
2021/06/15 10:02:46;;;;;;;5.13;3.70;;;;;;;34.85;33.16;100228.22;5055543;28;20199;-65
2021/06/15 10:05:27;;;;;;;8.60;4.03;;;;;;;34.65;33.32;100220.44;5064434;28;20136;-65
2021/06/15 10:07:57;;;;;;;6.57;3.25;;;;;;;34.64;33.59;100223.81;5070869;28;20554;-65
2021/06/15 10:10:30;;;;;;;7.00;4.05;;;;;;;34.81;33.44;100207.19;5084072;28;20128;-65
2021/06/15 10:12:57;;;;;;;6.57;4.10;;;;;;;34.70;33.74;100233.56;5070468;28;20133;-66
2021/06/15 10:15:28;;;;;;;7.43;4.57;;;;;;;34.54;33.97;100233.59;5087072;28;20117;-65
2021/06/15 10:17:56;;;;;;;11.02;4.50;;;;;;;34.41;34.22;100221.88;5063232;28;20136;-65
2021/06/15 10:20:32;;;;;;;6.88;4.45;;;;;;;34.60;33.59;100228.88;5060370;28;20048;-65
2021/06/15 10:23:00;;;;;;;9.07;4.32;;;;;;;34.44;33.54;100210.19;5091158;28;20499;-67
2021/06/15 10:25:30;;;;;;;11.13;5.53;;;;;;;34.54;33.94;100230.69;5090872;28;20121;-66
2021/06/15 10:27:58;;;;;;;11.70;5.40;;;;;;;34.81;33.48;100221.72;5082257;28;20163;-65
2021/06/15 10:30:32;;;;;;;11.13;5.60;;;;;;;34.89;33.47;100218.13;5070397;28;20102;-66
2021/06/15 10:33:10;;;;;;;9.82;5.00;;;;;;;34.99;33.27;100222.00;5056175;28;20099;-66
2021/06/15 10:35:42;;;;;;;7.85;4.68;;;;;;;34.96;33.43;100233.72;5089959;28;20040;-64
2021/06/15 10:38:10;;;;;;;8.25;4.53;;;;;;;35.01;33.69;100219.50;5089941;28;20055;-66
2021/06/15 10:40:40;;;;;;;11.70;4.47;;;;;;;35.31;33.06;100229.03;5094253;28;20040;-65
2021/06/15 10:43:26;;;;;;;13.35;4.45;;;;;;;35.08;33.24;100207.72;5094662;28;20044;-66
2021/06/15 10:46:04;;;;;;;6.65;4.10;;;;;;;35.23;33.62;100225.50;5060883;28;20045;-66
2021/06/15 10:48:44;;;;;;;8.67;4.60;;;;;;;35.32;33.34;100219.88;5082394;28;20048;-67
2021/06/15 10:51:22;;;;;;;8.70;5.43;;;;;;;35.62;32.84;100219.84;5068635;28;20368;-67
2021/06/15 10:53:50;;;;;;;10.55;5.40;;;;;;;35.56;33.03;100220.44;5081702;28;20132;-66
2021/06/15 10:56:23;;;;;;;12.48;5.40;;;;;;;35.55;32.92;100212.97;5083045;28;20119;-66
2021/06/15 10:58:54;;;;;;;9.50;5.20;;;;;;;35.52;32.85;100213.91;5064403;28;20076;-65
2021/06/15 11:01:23;;;;;;;11.05;5.47;;;;;;;35.76;32.91;100222.31;5087402;28;20123;-65
2021/06/15 11:03:50;;;;;;;8.38;4.80;;;;;;;35.76;32.70;100226.03;5075208;28;20444;-66
2021/06/15 11:06:38;;;;;;;9.85;5.85;;;;;;;35.26;33.07;100210.09;5092640;28;20079;-66
2021/06/15 11:09:05;;;;;;;9.57;4.85;;;;;;;35.40;33.05;100226.28;5094128;28;20055;-66
2021/06/15 11:11:34;;;;;;;9.95;5.28;;;;;;;35.68;32.79;100218.00;5094156;28;20089;-64
2021/06/15 11:14:30;;;;;;;;;;;;;;;35.28;34.13;100215.41;5084573;28;20151;-65
2021/06/15 11:17:01;;;;;;;7.72;3.95;;;;;;;35.80;33.02;100199.78;5076554;28;20006;-66
2021/06/15 11:19:32;;;;;;;6.85;4.18;;;;;;;36.10;32.59;100206.31;5082766;28;20048;-66
2021/06/15 11:22:07;;;;;;;7.22;5.03;;;;;;;36.09;32.11;100198.88;5082598;28;20510;-66
2021/06/15 11:24:34;;;;;;;5.78;4.30;;;;;;;35.89;32.59;100214.41;5093719;28;20472;-65
2021/06/15 11:27:30;;;;;;;6.78;4.40;;;;;;;35.77;32.56;100194.91;5087731;28;20056;-65
2021/06/15 11:30:19;;;;;;;8.77;5.05;;;;;;;35.67;32.94;100190.25;5069495;28;20090;-66
2021/06/15 11:33:02;;;;;;;6.22;4.40;;;;;;;35.96;32.82;100195.94;5072868;28;20115;-65
2021/06/15 11:35:32;;;;;;;7.13;4.30;;;;;;;36.40;32.12;100196.19;5071548;28;20040;-65
2021/06/15 11:38:04;;;;;;;5.72;4.43;;;;;;;36.32;31.52;100186.09;5067403;28;20045;-65
2021/06/15 11:40:34;;;;;;;5.15;4.15;;;;;;;36.54;31.40;100195.72;5068195;28;20045;-66